createdAt,value
2018-11-27T00:00:09.133Z,6.11
2018-11-27T00:03:38.940Z,6.10
2018-11-27T00:07:03.681Z,6.17
2018-11-27T00:10:29.318Z,6.33
2018-11-27T00:13:53.956Z,6.33
2018-11-27T00:17:18.624Z,6.31
2018-11-27T00:20:43.269Z,6.39
2018-11-27T00:24:08.002Z,6.35
2018-11-27T00:27:32.688Z,6.39
2018-11-27T00:30:57.364Z,6.29
2018-11-27T00:34:22.046Z,6.26
2018-11-27T00:37:46.730Z,6.33
2018-11-27T00:41:11.405Z,6.29
2018-11-27T00:44:36.073Z,6.56
2018-11-27T00:48:00.755Z,6.40
2018-11-27T00:51:25.463Z,6.46
2018-11-27T00:54:50.161Z,6.37
2018-11-27T00:58:14.794Z,6.41
2018-11-27T01:01:39.555Z,6.54
2018-11-27T01:05:04.306Z,6.45
2018-11-27T01:08:29.025Z,6.53
2018-11-27T01:11:53.717Z,6.59
2018-11-27T01:15:18.408Z,6.63
2018-11-27T01:18:43.076Z,6.36
2018-11-27T01:22:07.798Z,6.47
2018-11-27T01:25:32.478Z,6.38
2018-11-27T01:28:57.193Z,6.41
2018-11-27T01:32:21.892Z,6.29
2018-11-27T01:35:46.632Z,6.36
2018-11-27T01:39:11.357Z,6.28
2018-11-27T01:42:36.056Z,6.24
2018-11-27T01:46:00.701Z,6.35
2018-11-27T01:49:25.394Z,6.27
2018-11-27T01:52:50.309Z,6.22
2018-11-27T01:56:14.978Z,6.20
2018-11-27T01:59:39.726Z,6.21
2018-11-27T02:03:04.468Z,6.20
2018-11-27T02:06:29.144Z,6.13
2018-11-27T02:09:53.777Z,6.05
2018-11-27T02:13:18.510Z,6.12
2018-11-27T02:16:43.266Z,5.99
2018-11-27T02:20:10.681Z,6.19
2018-11-27T02:23:35.391Z,5.93
2018-11-27T02:27:00.074Z,5.98
2018-11-27T02:30:25.543Z,5.98
2018-11-27T02:33:50.192Z,6.09
2018-11-27T02:37:14.900Z,6.19
2018-11-27T02:40:39.643Z,6.20
2018-11-27T02:44:04.320Z,6.16
2018-11-27T02:47:28.994Z,6.32
2018-11-27T02:50:53.746Z,6.24
2018-11-27T02:54:18.405Z,6.21
2018-11-27T02:57:43.172Z,6.24
2018-11-27T03:01:07.888Z,6.31
2018-11-27T03:04:32.566Z,6.27
2018-11-27T03:07:57.343Z,6.30
2018-11-27T03:11:22.055Z,6.21
2018-11-27T03:14:46.745Z,6.38
2018-11-27T03:18:11.467Z,6.46
2018-11-27T03:21:36.199Z,6.39
2018-11-27T03:25:00.919Z,6.33
2018-11-27T03:28:25.626Z,6.42
2018-11-27T03:31:50.381Z,6.53
2018-11-27T03:35:16.692Z,6.59
2018-11-27T03:38:41.337Z,6.60
2018-11-27T03:42:06.339Z,6.66
2018-11-27T03:45:31.068Z,6.69
2018-11-27T03:48:55.773Z,6.65
2018-11-27T03:52:20.645Z,6.64
2018-11-27T03:55:45.388Z,6.65
2018-11-27T03:59:10.090Z,6.60
2018-11-27T04:02:34.784Z,6.66
2018-11-27T04:05:59.487Z,6.72
2018-11-27T04:09:24.150Z,6.63
2018-11-27T04:12:48.965Z,6.80
2018-11-27T04:16:13.705Z,6.64
2018-11-27T04:19:38.386Z,6.86
2018-11-27T04:23:03.081Z,6.87
2018-11-27T04:26:27.845Z,6.98
2018-11-27T04:29:52.533Z,6.83
2018-11-27T04:33:17.229Z,6.75
2018-11-27T04:36:41.894Z,6.82
2018-11-27T04:40:09.511Z,6.77
2018-11-27T04:43:34.216Z,6.73
2018-11-27T04:46:58.914Z,6.69
2018-11-27T04:50:23.696Z,6.85
2018-11-27T04:53:48.391Z,6.77
2018-11-27T04:57:13.053Z,6.77
2018-11-27T05:00:37.762Z,6.69
2018-11-27T05:04:02.492Z,6.79
2018-11-27T05:07:27.231Z,6.77
2018-11-27T05:10:52.585Z,6.71
2018-11-27T05:14:17.240Z,6.71
2018-11-27T05:17:47.724Z,6.68
2018-11-27T05:21:07.941Z,6.76
2018-11-27T05:24:32.625Z,6.66
2018-11-27T05:27:58.597Z,6.74
2018-11-27T05:31:23.293Z,6.68
2018-11-27T05:34:48.016Z,6.76
2018-11-27T05:38:12.712Z,6.72
2018-11-27T05:41:37.518Z,6.73
2018-11-27T05:45:02.258Z,6.62
2018-11-27T05:48:26.946Z,6.70
2018-11-27T05:51:51.635Z,6.68
2018-11-27T05:55:16.703Z,6.66
2018-11-27T05:58:41.486Z,6.77
2018-11-27T06:02:06.651Z,6.79
2018-11-27T06:05:31.434Z,6.60
2018-11-27T06:08:57.001Z,6.64
2018-11-27T06:12:20.885Z,6.67
2018-11-27T06:15:45.651Z,6.67
2018-11-27T06:19:10.359Z,6.77
2018-11-27T06:22:35.229Z,6.76
2018-11-27T06:25:59.942Z,6.78
2018-11-27T06:29:24.700Z,6.88
2018-11-27T06:32:49.473Z,6.75
2018-11-27T06:36:14.268Z,7.26
2018-11-27T06:39:39.072Z,7.13
2018-11-27T06:43:03.947Z,6.95
2018-11-27T06:46:28.710Z,6.86
2018-11-27T06:49:53.460Z,6.91
2018-11-27T06:53:18.302Z,6.87
2018-11-27T06:56:43.131Z,7.01
2018-11-27T07:00:18.798Z,6.91
2018-11-27T07:03:43.660Z,6.98
2018-11-27T07:07:08.527Z,6.97
2018-11-27T07:10:34.529Z,7.04
2018-11-27T07:13:59.430Z,6.97
2018-11-27T07:17:24.170Z,6.93
2018-11-27T07:20:49.133Z,6.97
2018-11-27T07:24:13.890Z,6.95
2018-11-27T07:27:51.347Z,7.15
2018-11-27T07:31:42.115Z,7.04
2018-11-27T07:35:08.845Z,6.98
2018-11-27T07:38:33.637Z,6.95
2018-11-27T07:41:58.427Z,7.15
2018-11-27T07:45:24.430Z,7.29
2018-11-27T07:48:50.032Z,7.21
2018-11-27T07:52:14.869Z,7.23
2018-11-27T07:55:39.687Z,6.92
2018-11-27T07:59:04.440Z,7.09
2018-11-27T08:02:29.381Z,7.01
2018-11-27T08:05:54.131Z,7.23
2018-11-27T08:09:18.889Z,7.43
2018-11-27T08:12:43.690Z,7.55
2018-11-27T08:16:08.647Z,7.59
2018-11-27T08:19:33.580Z,7.66
2018-11-27T08:23:00.583Z,7.53
2018-11-27T08:26:28.307Z,7.76
2018-11-27T08:29:53.107Z,7.87
2018-11-27T08:33:19.674Z,7.92
2018-11-27T08:36:45.613Z,8.02
2018-11-27T08:40:13.525Z,8.19
2018-11-27T08:43:38.303Z,7.95
2018-11-27T08:47:03.155Z,8.10
2018-11-27T08:50:28.858Z,8.17
2018-11-27T08:53:53.650Z,8.22
2018-11-27T08:57:18.399Z,8.19
2018-11-27T09:00:43.236Z,8.30
2018-11-27T09:04:08.117Z,8.16
2018-11-27T09:07:32.907Z,8.46
2018-11-27T09:10:57.637Z,8.39
2018-11-27T09:14:22.356Z,8.36
2018-11-27T09:17:51.460Z,8.44
2018-11-27T09:21:16.454Z,8.49
2018-11-27T09:24:41.234Z,8.46
2018-11-27T09:28:07.384Z,8.56
2018-11-27T09:31:38.724Z,8.57
2018-11-27T09:35:03.562Z,8.56
2018-11-27T09:38:28.315Z,8.83
2018-11-27T09:41:53.196Z,8.79
2018-11-27T09:45:22.258Z,8.91
2018-11-27T09:48:47.023Z,9.01
2018-11-27T09:52:11.878Z,8.82
2018-11-27T09:55:36.614Z,9.17
2018-11-27T09:59:01.491Z,9.36
2018-11-27T10:02:26.267Z,9.38
2018-11-27T10:05:51.069Z,9.53
2018-11-27T10:09:15.820Z,9.64
2018-11-27T10:12:40.748Z,9.15
2018-11-27T10:16:05.524Z,9.91
2018-11-27T10:19:30.237Z,10.17
2018-11-27T10:22:54.964Z,10.50
2018-11-27T10:26:19.700Z,10.60
2018-11-27T10:29:44.442Z,10.60
2018-11-27T10:33:11.228Z,10.77
2018-11-27T10:36:35.987Z,10.70
2018-11-27T10:40:00.698Z,10.09
2018-11-27T10:43:25.515Z,9.54
2018-11-27T10:46:50.287Z,10.22
2018-11-27T10:50:16.356Z,9.98
2018-11-27T10:53:41.073Z,10.36
2018-11-27T10:57:06.417Z,10.60
2018-11-27T11:00:36.202Z,10.15
2018-11-27T11:04:00.978Z,9.93
2018-11-27T11:07:25.722Z,10.21
2018-11-27T11:10:50.700Z,9.90
2018-11-27T11:14:15.426Z,9.84
2018-11-27T11:17:40.233Z,9.78
2018-11-27T11:21:05.112Z,9.61
2018-11-27T11:24:29.833Z,10.01
2018-11-27T11:27:57.437Z,9.78
2018-11-27T11:31:22.125Z,9.57
2018-11-27T11:34:46.855Z,9.51
2018-11-27T11:42:10.796Z,9.46
2018-11-27T11:50:09.748Z,9.55
2018-11-27T12:02:27.939Z,9.69
2018-11-27T12:05:54.366Z,9.75
2018-11-27T12:09:19.340Z,9.38
2018-11-27T12:12:45.600Z,9.47
2018-11-27T12:16:10.364Z,9.53
2018-11-27T12:19:35.150Z,9.42
2018-11-27T12:22:59.950Z,9.59
2018-11-27T12:26:24.841Z,9.57
2018-11-27T12:29:49.817Z,9.22
2018-11-27T12:33:14.782Z,9.64
2018-11-27T12:36:39.725Z,9.34
2018-11-27T12:40:05.300Z,9.42
2018-11-27T12:43:30.198Z,9.67
2018-11-27T12:46:55.226Z,9.67
2018-11-27T12:50:24.753Z,9.66
2018-11-27T12:53:56.821Z,9.70
2018-11-27T12:57:21.801Z,9.29
2018-11-27T13:00:52.178Z,9.38
2018-11-27T13:04:17.183Z,9.54
2018-11-27T13:07:43.009Z,9.71
2018-11-27T13:11:13.937Z,9.82
2018-11-27T13:14:39.432Z,9.97
2018-11-27T13:18:05.308Z,9.96
2018-11-27T13:21:30.673Z,10.26
2018-11-27T13:25:13.935Z,9.97
2018-11-27T13:28:40.956Z,10.18
2018-11-27T13:32:16.461Z,10.19
2018-11-27T13:39:47.333Z,10.32
2018-11-27T13:43:29.541Z,10.28
2018-11-27T13:46:54.777Z,10.00
2018-11-27T13:50:19.990Z,10.16
2018-11-27T13:53:55.073Z,10.05
2018-11-27T13:57:20.275Z,10.03
2018-11-27T14:00:46.171Z,9.91
2018-11-27T14:04:11.746Z,9.86
2018-11-27T14:07:37.503Z,9.89
2018-11-27T14:11:02.770Z,9.56
2018-11-27T14:14:28.174Z,9.57
2018-11-27T14:17:55.439Z,9.43
2018-11-27T14:21:28.364Z,9.22
2018-11-27T14:24:54.573Z,9.49
2018-11-27T14:28:21.873Z,9.46
2018-11-27T14:32:02.216Z,9.32
2018-11-27T14:35:28.444Z,9.45
2018-11-27T14:38:53.742Z,9.20
2018-11-27T14:42:19.670Z,9.11
2018-11-27T14:45:44.707Z,8.60
2018-11-27T14:49:13.699Z,9.00
2018-11-27T14:52:38.802Z,8.99
2018-11-27T14:56:03.508Z,8.99
2018-11-27T14:59:28.177Z,9.10
2018-11-27T15:02:53.043Z,8.94
2018-11-27T15:06:17.773Z,9.22
2018-11-27T15:09:42.545Z,9.04
2018-11-27T15:13:08.381Z,9.02
2018-11-27T15:16:34.877Z,9.13
2018-11-27T15:19:59.813Z,8.92
2018-11-27T15:23:24.645Z,8.72
2018-11-27T15:26:49.556Z,8.98
2018-11-27T15:30:23.390Z,8.91
2018-11-27T15:33:48.199Z,9.03
2018-11-27T15:37:12.926Z,9.00
2018-11-27T15:40:39.488Z,8.76
2018-11-27T15:44:04.318Z,8.77
2018-11-27T15:47:29.070Z,8.90
2018-11-27T15:50:53.885Z,8.93
2018-11-27T15:54:18.677Z,8.74
2018-11-27T15:57:43.657Z,8.94
2018-11-27T16:01:15.058Z,8.67
2018-11-27T16:04:39.834Z,8.52
2018-11-27T16:08:04.640Z,8.46
2018-11-27T16:11:29.387Z,8.02
2018-11-27T16:14:54.176Z,8.18
2018-11-27T16:18:18.967Z,7.99
2018-11-27T16:21:43.749Z,7.71
2018-11-27T16:25:11.237Z,7.55
2018-11-27T16:28:36.015Z,7.55
2018-11-27T16:32:00.772Z,7.56
2018-11-27T16:35:25.531Z,7.46
2018-11-27T16:38:56.708Z,7.45
2018-11-27T16:42:21.390Z,7.27
2018-11-27T16:45:46.150Z,7.25
2018-11-27T16:49:10.859Z,7.17
2018-11-27T16:52:35.559Z,7.21
2018-11-27T16:56:00.266Z,7.26
2018-11-27T16:59:25.067Z,7.08
2018-11-27T17:02:51.508Z,7.00
2018-11-27T17:06:16.279Z,7.11
2018-11-27T17:09:41.031Z,7.04
2018-11-27T17:13:08.528Z,6.96
2018-11-27T17:16:33.348Z,7.01
2018-11-27T17:19:58.130Z,6.78
2018-11-27T17:23:22.898Z,6.70
2018-11-27T17:26:47.737Z,6.70
2018-11-27T17:30:21.515Z,6.59
2018-11-27T17:34:05.050Z,6.62
2018-11-27T17:37:29.835Z,6.55
2018-11-27T17:40:54.799Z,6.57
2018-11-27T17:44:19.713Z,6.41
2018-11-27T17:47:45.449Z,6.31
2018-11-27T17:51:10.181Z,6.32
2018-11-27T17:54:35.463Z,6.28
2018-11-27T17:58:00.252Z,6.21
2018-11-27T18:01:25.012Z,6.17
2018-11-27T18:04:51.184Z,6.20
2018-11-27T18:08:15.873Z,6.10
2018-11-27T18:11:40.595Z,5.93
2018-11-27T18:15:07.610Z,6.06
2018-11-27T18:18:32.601Z,5.96
2018-11-27T18:21:57.477Z,6.08
2018-11-27T18:25:22.306Z,5.98
2018-11-27T18:28:49.077Z,5.97
2018-11-27T18:32:14.021Z,6.07
2018-11-27T18:35:38.807Z,5.88
2018-11-27T18:39:03.763Z,5.92
2018-11-27T18:42:28.503Z,5.86
2018-11-27T18:45:53.249Z,5.85
2018-11-27T18:49:18.015Z,5.93
2018-11-27T18:52:43.612Z,5.86
2018-11-27T18:56:08.351Z,5.69
2018-11-27T18:59:33.044Z,5.85
2018-11-27T19:02:57.987Z,5.65
2018-11-27T19:06:22.860Z,5.84
2018-11-27T19:09:47.943Z,5.72
2018-11-27T19:13:12.711Z,5.50
2018-11-27T19:16:37.474Z,5.89
2018-11-27T19:20:02.327Z,5.87
2018-11-27T19:23:27.779Z,5.67
2018-11-27T19:26:52.643Z,5.81
2018-11-27T19:30:19.889Z,5.90
2018-11-27T19:33:44.650Z,5.95
2018-11-27T19:37:09.390Z,5.96
2018-11-27T19:40:34.148Z,5.93
2018-11-27T19:43:58.918Z,5.99
2018-11-27T19:47:23.621Z,5.89
2018-11-27T19:50:49.395Z,6.09
2018-11-27T19:54:14.201Z,6.03
2018-11-27T19:57:39.699Z,5.80
2018-11-27T20:01:04.669Z,6.10
2018-11-27T20:04:29.411Z,6.09
2018-11-27T20:07:54.155Z,6.11
2018-11-27T20:11:18.966Z,6.20
2018-11-27T20:14:43.755Z,5.95
2018-11-27T20:18:08.701Z,5.97
2018-11-27T20:21:33.398Z,6.09
2018-11-27T20:24:58.233Z,6.09
2018-11-27T20:28:22.983Z,5.92
2018-11-27T20:31:47.697Z,5.69
2018-11-27T20:35:14.197Z,5.90
2018-11-27T20:38:38.924Z,5.92
2018-11-27T20:42:03.646Z,5.78
2018-11-27T20:45:28.535Z,5.88
2018-11-27T20:48:53.385Z,5.75
2018-11-27T20:52:18.161Z,5.75
2018-11-27T20:55:43.590Z,5.85
2018-11-27T20:59:08.409Z,5.78
2018-11-27T21:02:33.124Z,5.45
2018-11-27T21:05:57.799Z,5.47
2018-11-27T21:09:22.457Z,5.49
2018-11-27T21:12:47.302Z,5.48
2018-11-27T21:16:12.042Z,5.47
2018-11-27T21:19:36.777Z,5.41
2018-11-27T21:23:01.508Z,5.34
2018-11-27T21:26:26.271Z,5.36
2018-11-27T21:29:51.019Z,5.46
2018-11-27T21:33:16.439Z,5.40
2018-11-27T21:36:41.211Z,5.21
2018-11-27T21:40:08.301Z,5.24
2018-11-27T21:43:33.021Z,5.25
2018-11-27T21:46:57.735Z,5.18
2018-11-27T21:50:28.744Z,5.05
2018-11-27T21:53:53.554Z,5.18
2018-11-27T21:57:18.360Z,5.34
2018-11-27T22:00:43.862Z,5.40
2018-11-27T22:04:08.621Z,5.29
2018-11-27T22:07:33.442Z,5.35
2018-11-27T22:10:58.163Z,5.19
2018-11-27T22:14:22.898Z,5.05
2018-11-27T22:17:47.676Z,5.36
2018-11-27T22:21:13.395Z,5.12
2018-11-27T22:24:38.153Z,5.17
2018-11-27T22:28:02.892Z,5.16
2018-11-27T22:31:27.636Z,4.97
2018-11-27T22:34:52.345Z,5.17
2018-11-27T22:38:17.056Z,5.20
2018-11-27T22:41:41.919Z,5.11
2018-11-27T22:45:12.079Z,5.02
2018-11-27T22:48:36.837Z,5.08
2018-11-27T22:52:01.620Z,4.86
2018-11-27T22:55:26.364Z,5.18
2018-11-27T22:58:51.104Z,5.12
2018-11-27T23:02:15.847Z,5.24
2018-11-27T23:05:40.621Z,4.88
2018-11-27T23:09:08.594Z,5.07
2018-11-27T23:12:33.320Z,5.02
2018-11-27T23:15:58.015Z,5.12
2018-11-27T23:19:22.797Z,5.07
2018-11-27T23:22:47.564Z,5.17
2018-11-27T23:26:12.329Z,5.00
2018-11-27T23:29:37.048Z,5.00
2018-11-27T23:33:01.752Z,5.14
2018-11-27T23:36:26.403Z,5.13
2018-11-27T23:39:51.127Z,5.19
2018-11-27T23:43:15.923Z,5.08
2018-11-27T23:46:40.673Z,5.02
2018-11-27T23:50:06.503Z,5.03
2018-11-27T23:53:31.181Z,4.90
2018-11-27T23:56:55.913Z,4.95
